Time;durP1;ratioP1;P1;durP2;ratioP2;P2;SDS_P1;SDS_P2;PMS_P1;PMS_P2;Temp;Humidity;BMP_temperature;BMP_pressure;BME280_temperature;BME280_humidity;BME280_pressure;Samples;Min_cycle;Max_cycle;Signal;HPM_P1;HPM_P2
2023/04/30 00:01:45;;;;;;;;;;;;;;;11.23;100.00;96711.25;5028949;28;20407;-71
2023/04/30 00:04:10;;;;;;;;;;;;;;;11.12;100.00;96713.03;5037989;28;19923;-71
2023/04/30 00:06:36;;;;;;;;;;;;;;;11.13;100.00;96717.34;5042400;28;19924;-70
2023/04/30 00:09:01;;;;;;;;;;;;;;;11.05;100.00;96728.22;5025964;28;19951;-70
2023/04/30 00:11:27;;;;;;;;;;;;;;;10.96;100.00;96735.91;5043796;28;19916;-69
2023/04/30 00:13:52;;;;;;;;;;;;;;;10.81;100.00;96734.13;5025777;28;19924;-70
2023/04/30 00:16:18;;;;;;;;;;;;;;;10.85;100.00;96733.00;5037440;28;20343;-69
2023/04/30 00:18:43;;;;;;;;;;;;;;;10.95;100.00;96733.53;5042510;28;19917;-70
2023/04/30 00:21:08;;;;;;;;;;;;;;;11.18;100.00;96730.75;5036540;28;19917;-70
2023/04/30 00:23:33;;;;;;;;;;;;;;;11.06;100.00;96726.28;5042215;28;20288;-70
2023/04/30 00:25:59;;;;;;;;;;;;;;;10.96;100.00;96721.41;5023418;28;19966;-69
2023/04/30 00:28:24;;;;;;;;;;;;;;;10.93;100.00;96716.66;5039366;28;19975;-70
2023/04/30 00:30:50;;;;;;;;;;;;;;;10.85;100.00;96719.28;5024298;28;19917;-71
2023/04/30 00:33:15;;;;;;;;;;;;;;;10.86;100.00;96722.84;5037598;28;19925;-70
2023/04/30 00:35:41;;;;;;;;;;;;;;;10.79;100.00;96711.78;5042020;28;19979;-71
2023/04/30 00:38:06;;;;;;;;;;;;;;;10.71;100.00;96722.63;5036885;28;19987;-69
2023/04/30 00:40:33;;;;;;;;;;;;;;;10.65;100.00;96713.13;5024239;28;19931;-69
2023/04/30 00:42:58;;;;;;;;;;;;;;;10.64;100.00;96716.22;5024393;28;19916;-70
2023/04/30 00:45:23;;;;;;;;;;;;;;;10.62;100.00;96721.28;5036423;28;20073;-71
2023/04/30 00:47:49;;;;;;;;;;;;;;;10.60;100.00;96709.91;5042833;28;19916;-70
2023/04/30 00:50:15;;;;;;;;;;;;;;;10.61;100.00;96709.53;5038001;28;20276;-69
2023/04/30 00:52:41;;;;;;;;;;;;;;;10.55;100.00;96702.75;5041762;28;19924;-69
2023/04/30 00:55:06;;;;;;;;;;;;;;;10.55;100.00;96697.28;5037281;28;19921;-69
2023/04/30 00:57:33;;;;;;;;;;;;;;;10.56;100.00;96698.88;5041555;28;19955;-70
2023/04/30 00:59:58;;;;;;;;;;;;;;;10.51;100.00;96702.75;5043634;28;19921;-69
2023/04/30 01:02:23;;;;;;;;;;;;;;;10.48;100.00;96692.50;5037825;28;20334;-70
2023/04/30 01:04:49;;;;;;;;;;;;;;;10.42;100.00;96693.94;5042787;28;19916;-70
2023/04/30 01:07:15;;;;;;;;;;;;;;;10.50;100.00;96700.38;5037088;28;19917;-70
2023/04/30 01:09:40;;;;;;;;;;;;;;;10.45;100.00;96689.72;5042693;28;19917;-72
2023/04/30 01:12:15;;;;;;;;;;;;;;;10.35;100.00;96696.56;5032294;28;19916;-71
2023/04/30 01:14:55;;;;;;;;;;;;;;;10.28;100.00;96691.75;5061056;28;19924;-72
2023/04/30 01:17:31;;;;;;;;;;;;;;;10.28;100.00;96688.19;5023786;28;19921;-70
2023/04/30 01:19:56;;;;;;;;;;;;;;;10.20;100.00;96689.25;5024489;28;19979;-70
2023/04/30 01:22:21;;;;;;;;;;;;;;;10.13;100.00;96679.75;5036661;28;20604;-69
2023/04/30 01:25:06;;;;;;;;;;;;;;;10.15;100.00;96693.06;5027702;28;19970;-70
2023/04/30 01:27:50;;;;;;;;;;;;;;;10.09;100.00;96694.53;5044569;28;19927;-71
2023/04/30 01:30:17;;;;;;;;;;;;;;;10.09;100.00;96689.06;5041017;28;19948;-71
2023/04/30 01:32:42;;;;;;;;;;;;;;;10.02;100.00;96686.97;5045404;28;20055;-70
2023/04/30 01:35:07;;;;;;;;;;;;;;;10.03;100.00;96695.97;5040420;28;20019;-70
2023/04/30 01:37:54;;;;;;;;;;;;;;;9.99;100.00;96692.38;5044958;28;20280;-70
2023/04/30 01:40:20;;;;;;;;;;;;;;;9.94;100.00;96694.28;5039931;28;19928;-70
2023/04/30 01:42:54;;;;;;;;;;;;;;;9.93;100.00;96700.88;5044987;28;19921;-74
2023/04/30 01:45:43;;;;;;;;;;;;;;;9.87;100.00;96694.13;5021861;28;19951;-69
2023/04/30 01:48:26;;;;;;;;;;;;;;;9.85;100.00;96696.44;5039381;28;19923;-70
2023/04/30 01:50:57;;;;;;;;;;;;;;;9.81;100.00;96694.78;5027217;28;20374;-69
2023/04/30 01:53:23;;;;;;;;;;;;;;;9.85;100.00;96693.72;5040834;28;20437;-70
2023/04/30 01:55:51;;;;;;;;;;;;;;;9.91;100.00;96691.47;5043858;28;19917;-70
2023/04/30 01:58:17;;;;;;;;;;;;;;;9.79;100.00;96706.09;5041799;28;19925;-71
2023/04/30 02:00:42;;;;;;;;;;;;;;;9.73;100.00;96696.59;5044743;28;19992;-69
2023/04/30 02:03:08;;;;;;;;;;;;;;;9.74;100.00;96696.25;5021814;28;20442;-68
2023/04/30 02:05:33;;;;;;;;;;;;;;;9.67;100.00;96704.31;5026052;28;19924;-68
2023/04/30 02:07:58;;;;;;;;;;;;;;;9.64;100.00;96694.09;5044768;28;20012;-69
2023/04/30 02:10:25;;;;;;;;;;;;;;;9.61;100.00;96694.78;5039964;28;19918;-68
2023/04/30 02:12:50;;;;;;;;;;;;;;;9.60;100.00;96701.44;5044304;28;19921;-69
2023/04/30 02:15:16;;;;;;;;;;;;;;;9.57;100.00;96696.66;5040118;28;19928;-69
2023/04/30 02:17:41;;;;;;;;;;;;;;;9.57;100.00;96696.66;5044453;28;19925;-70
2023/04/30 02:20:07;;;;;;;;;;;;;;;9.56;100.00;96706.81;5040513;28;19921;-70
2023/04/30 02:22:32;;;;;;;;;;;;;;;9.47;100.00;96698.06;5045116;28;20002;-69
2023/04/30 02:24:58;;;;;;;;;;;;;;;9.46;100.00;96696.44;5044388;28;19959;-69
2023/04/30 02:27:24;;;;;;;;;;;;;;;9.43;100.00;96693.66;5021869;28;20333;-70
2023/04/30 02:29:50;;;;;;;;;;;;;;;9.36;100.00;96699.75;5043766;28;19921;-70
2023/04/30 02:32:15;;;;;;;;;;;;;;;9.33;100.00;96703.22;5038635;28;20450;-70
2023/04/30 02:34:40;;;;;;;;;;;;;;;9.35;100.00;96684.50;5043016;28;19939;-70
2023/04/30 02:37:06;;;;;;;;;;;;;;;9.38;100.00;96705.66;5041486;28;19924;-70
2023/04/30 02:39:32;;;;;;;;;;;;;;;9.41;100.00;96693.22;5050036;28;19923;-70
2023/04/30 02:41:57;;;;;;;;;;;;;;;9.36;100.00;96697.00;5046054;28;19978;-68
2023/04/30 02:44:23;;;;;;;;;;;;;;;9.36;100.00;96697.81;5040074;28;20303;-69
2023/04/30 02:46:48;;;;;;;;;;;;;;;9.36;100.00;96689.63;5044040;28;19920;-70
2023/04/30 02:49:13;;;;;;;;;;;;;;;9.37;100.00;96690.41;5039674;28;19986;-69
2023/04/30 02:51:38;;;;;;;;;;;;;;;9.33;100.00;96692.28;5043641;28;19920;-69
2023/04/30 02:54:04;;;;;;;;;;;;;;;9.30;100.00;96690.25;5040490;28;19916;-73
2023/04/30 02:56:29;;;;;;;;;;;;;;;9.29;100.00;96683.19;5046147;28;19927;-70
2023/04/30 02:58:54;;;;;;;;;;;;;;;9.32;100.00;96693.44;5044355;28;20308;-69
2023/04/30 03:01:20;;;;;;;;;;;;;;;9.31;100.00;96689.91;5037133;28;19917;-71
2023/04/30 03:03:45;;;;;;;;;;;;;;;9.28;100.00;96685.16;5025951;28;19920;-71
2023/04/30 03:06:10;;;;;;;;;;;;;;;9.34;100.00;96691.13;5039512;28;19924;-71
2023/04/30 03:08:36;;;;;;;;;;;;;;;9.32;100.00;96686.00;5044579;28;19917;-71
2023/04/30 03:11:01;;;;;;;;;;;;;;;9.34;100.00;96691.13;5043779;28;19968;-69
2023/04/30 03:13:26;;;;;;;;;;;;;;;9.32;100.00;96687.97;5037236;28;19999;-69
2023/04/30 03:16:03;;;;;;;;;;;;;;;9.32;100.00;96691.47;5043965;28;19916;-71
2023/04/30 03:18:29;;;;;;;;;;;;;;;9.32;100.00;96686.00;5043267;28;19974;-69
2023/04/30 03:20:54;;;;;;;;;;;;;;;9.29;100.00;96681.28;5028099;28;19920;-70
2023/04/30 03:23:22;;;;;;;;;;;;;;;9.28;100.00;96687.09;5041469;28;20225;-70
2023/04/30 03:25:47;;;;;;;;;;;;;;;9.25;100.00;96685.84;5040308;28;19916;-70
2023/04/30 03:28:12;;;;;;;;;;;;;;;9.27;100.00;96683.56;5028470;28;19917;-71
2023/04/30 03:30:38;;;;;;;;;;;;;;;9.28;100.00;96676.94;5059817;28;19931;-71
2023/04/30 03:33:05;;;;;;;;;;;;;;;9.30;100.00;96676.59;5046903;28;19917;-70
2023/04/30 03:35:31;;;;;;;;;;;;;;;9.30;100.00;96684.78;5047500;28;19944;-70
2023/04/30 03:37:56;;;;;;;;;;;;;;;9.30;100.00;96685.56;5047808;28;19921;-70
2023/04/30 03:40:21;;;;;;;;;;;;;;;9.37;100.00;96672.06;5025284;28;19931;-70
2023/04/30 03:42:47;;;;;;;;;;;;;;;9.35;100.00;96673.59;5042345;28;19917;-70
2023/04/30 03:45:12;;;;;;;;;;;;;;;9.34;100.00;96680.97;5040331;28;19917;-69
2023/04/30 03:47:37;;;;;;;;;;;;;;;9.35;100.00;96668.13;5041457;28;19924;-69
2023/04/30 03:50:03;;;;;;;;;;;;;;;9.36;100.00;96675.97;5022060;28;20015;-72
2023/04/30 03:52:28;;;;;;;;;;;;;;;9.35;100.00;96668.91;5041230;28;20365;-72
2023/04/30 03:54:53;;;;;;;;;;;;;;;9.37;100.00;96674.78;5043740;28;19924;-71
2023/04/30 03:57:19;;;;;;;;;;;;;;;9.43;100.00;96671.78;5039047;28;20342;-69
2023/04/30 03:59:44;;;;;;;;;;;;;;;9.40;100.00;96673.31;5044040;28;19917;-70
2023/04/30 04:02:10;;;;;;;;;;;;;;;9.37;100.00;96668.53;5040089;28;20392;-70
2023/04/30 04:04:35;;;;;;;;;;;;;;;9.37;100.00;96672.06;5046040;28;19967;-70
2023/04/30 04:07:02;;;;;;;;;;;;;;;9.30;100.00;96666.44;5044337;28;19917;-70
2023/04/30 04:09:27;;;;;;;;;;;;;;;9.30;100.00;96662.94;5042016;28;20395;-71
2023/04/30 04:11:52;;;;;;;;;;;;;;;9.32;100.00;96660.63;5043165;28;19970;-70
2023/04/30 04:14:18;;;;;;;;;;;;;;;9.31;100.00;96664.50;5037075;28;20238;-71
2023/04/30 04:16:43;;;;;;;;;;;;;;;9.31;100.00;96675.44;5043977;28;20297;-71
2023/04/30 04:19:11;;;;;;;;;;;;;;;9.37;100.00;96663.06;5038459;28;19952;-69
2023/04/30 04:21:37;;;;;;;;;;;;;;;9.36;100.00;96672.41;5042583;28;19921;-70
2023/04/30 04:24:07;;;;;;;;;;;;;;;9.37;100.00;96676.75;5040924;28;19936;-71
2023/04/30 04:26:33;;;;;;;;;;;;;;;9.40;100.00;96669.75;5042177;28;19921;-70
2023/04/30 04:28:59;;;;;;;;;;;;;;;9.39;100.00;96677.16;5041923;28;20447;-69
2023/04/30 04:31:25;;;;;;;;;;;;;;;9.39;100.00;96677.16;5037726;28;19921;-70
2023/04/30 04:33:56;;;;;;;;;;;;;;;9.39;100.00;96677.16;5024728;28;20405;-70
2023/04/30 04:36:27;;;;;;;;;;;;;;;9.42;100.00;96683.84;5037275;28;19971;-70
2023/04/30 04:38:56;;;;;;;;;;;;;;;9.41;100.00;96674.88;5042055;28;19967;-71
2023/04/30 04:41:22;;;;;;;;;;;;;;;9.42;100.00;96686.59;5020712;28;20285;-70
2023/04/30 04:43:47;;;;;;;;;;;;;;;9.40;100.00;96692.44;5043750;28;19917;-71
2023/04/30 04:46:15;;;;;;;;;;;;;;;9.40;100.00;96686.16;5038390;28;19921;-71
2023/04/30 04:48:41;;;;;;;;;;;;;;;9.45;100.00;96683.13;5041911;28;19943;-71
2023/04/30 04:51:06;;;;;;;;;;;;;;;9.43;100.00;96688.97;5036941;28;19921;-71
2023/04/30 04:53:31;;;;;;;;;;;;;;;9.41;100.00;96691.28;5023942;28;19983;-71
2023/04/30 04:55:56;;;;;;;;;;;;;;;9.33;100.00;96692.28;5043024;28;19917;-70
2023/04/30 04:58:22;;;;;;;;;;;;;;;9.37;100.00;96684.94;5039337;28;19983;-69
2023/04/30 05:00:47;;;;;;;;;;;;;;;9.32;100.00;96693.44;5043678;28;20361;-70
2023/04/30 05:03:13;;;;;;;;;;;;;;;9.33;100.00;96676.66;5039947;28;19924;-70
2023/04/30 05:05:38;;;;;;;;;;;;;;;9.37;100.00;96679.47;5050285;28;19972;-70
2023/04/30 05:08:03;;;;;;;;;;;;;;;9.28;100.00;96678.91;5051338;28;19954;-73
2023/04/30 05:10:29;;;;;;;;;;;;;;;9.29;100.00;96685.94;5052924;28;19921;-69
2023/04/30 05:12:54;;;;;;;;;;;;;;;9.30;100.00;96684.78;5050954;28;20450;-70
2023/04/30 05:15:19;;;;;;;;;;;;;;;9.30;100.00;96684.78;5041245;28;19921;-72
2023/04/30 05:17:44;;;;;;;;;;;;;;;9.28;100.00;96690.63;5045761;28;20023;-71
2023/04/30 05:20:11;;;;;;;;;;;;;;;9.30;100.00;96699.25;5041783;28;19971;-70
2023/04/30 05:22:36;;;;;;;;;;;;;;;9.28;100.00;96690.63;5045429;28;20423;-68
2023/04/30 05:25:02;;;;;;;;;;;;;;;9.29;100.00;96672.25;5045705;28;19971;-73
2023/04/30 05:27:27;;;;;;;;;;;;;;;9.31;100.00;96687.16;5042087;28;19947;-71
2023/04/30 05:29:53;;;;;;;;;;;;;;;9.29;100.00;96662.16;5045868;28;19960;-68
2023/04/30 05:32:18;;;;;;;;;;;;;;;9.30;100.00;96696.50;5040482;28;19917;-70
2023/04/30 05:34:43;;;;;;;;;;;;;;;9.33;100.00;96693.06;5045252;28;20313;-69
2023/04/30 05:37:08;;;;;;;;;;;;;;;9.32;100.00;96693.44;5039787;28;19925;-70
2023/04/30 05:39:34;;;;;;;;;;;;;;;9.34;100.00;96688.38;5045411;28;19917;-70
2023/04/30 05:42:00;;;;;;;;;;;;;;;9.32;100.00;96696.94;5045412;28;19925;-70
2023/04/30 05:44:29;;;;;;;;;;;;;;;9.38;100.00;96694.72;5041603;28;19916;-69
2023/04/30 05:46:54;;;;;;;;;;;;;;;9.35;100.00;96689.97;5044079;28;19917;-69
2023/04/30 05:49:19;;;;;;;;;;;;;;;9.37;100.00;96699.41;5047909;28;19917;-70
2023/04/30 05:51:45;;;;;;;;;;;;;;;9.37;100.00;96698.59;5056775;28;19928;-70
2023/04/30 05:54:10;;;;;;;;;;;;;;;9.44;100.00;96684.31;5047362;28;19920;-71
2023/04/30 05:56:35;;;;;;;;;;;;;;;9.42;100.00;96687.41;5045503;28;19996;-69
2023/04/30 05:59:00;;;;;;;;;;;;;;;9.35;100.00;96682.56;5027151;28;19924;-70
2023/04/30 06:01:28;;;;;;;;;;;;;;;9.35;100.00;96695.44;5040667;28;20545;-70
2023/04/30 06:03:53;;;;;;;;;;;;;;;9.43;100.00;96683.50;5044528;28;20359;-71
2023/04/30 06:06:18;;;;;;;;;;;;;;;9.42;100.00;96701.06;5040281;28;19916;-70
2023/04/30 06:08:44;;;;;;;;;;;;;;;9.44;100.00;96687.03;5043961;28;19917;-71
2023/04/30 06:11:10;;;;;;;;;;;;;;;9.46;100.00;96685.53;5038629;28;19916;-71
2023/04/30 06:13:35;;;;;;;;;;;;;;;9.54;100.00;96683.72;5044323;28;19921;-71
2023/04/30 06:16:01;;;;;;;;;;;;;;;9.50;100.00;96682.84;5027553;28;20012;-69
2023/04/30 06:18:26;;;;;;;;;;;;;;;9.56;100.00;96679.47;5040423;28;19927;-70
2023/04/30 06:20:51;;;;;;;;;;;;;;;9.52;100.00;96669.63;5045155;28;19917;-71
2023/04/30 06:23:17;;;;;;;;;;;;;;;9.62;100.00;96679.19;5040394;28;19982;-70
2023/04/30 06:25:42;;;;;;;;;;;;;;;9.62;100.00;96687.41;5026472;28;19917;-72
2023/04/30 06:28:08;;;;;;;;;;;;;;;9.63;100.00;96681.53;5040773;28;19944;-71
2023/04/30 06:30:34;;;;;;;;;;;;;;;9.71;100.00;96690.69;5045163;28;19921;-71
2023/04/30 06:32:59;;;;;;;;;;;;;;;9.79;100.00;96688.88;5044112;28;19917;-72
2023/04/30 06:35:25;;;;;;;;;;;;;;;9.97;100.00;96697.44;5040734;28;19973;-70
2023/04/30 06:37:50;;;;;;;;;;;;;;;10.12;100.00;96685.59;5044171;28;19928;-70
2023/04/30 06:40:15;;;;;;;;;;;;;;;10.18;100.00;96686.88;5039766;28;20513;-70
2023/04/30 06:42:41;;;;;;;;;;;;;;;10.20;100.00;96689.25;5044327;28;19939;-67
2023/04/30 06:45:06;;;;;;;;;;;;;;;10.17;100.00;96690.75;5040008;28;19932;-69
2023/04/30 06:47:37;;;;;;;;;;;;;;;10.30;100.00;96689.44;5044861;28;19917;-69
2023/04/30 06:50:03;;;;;;;;;;;;;;;10.33;100.00;96696.97;5042434;28;20273;-71
2023/04/30 06:52:29;;;;;;;;;;;;;;;10.55;100.00;96675.38;5043188;28;19921;-70
2023/04/30 06:54:54;;;;;;;;;;;;;;;10.61;100.00;96687.63;5044277;28;19924;-67
2023/04/30 06:57:19;;;;;;;;;;;;;;;10.76;100.00;96693.31;5038918;28;19928;-69
2023/04/30 06:59:45;;;;;;;;;;;;;;;11.48;100.00;96684.94;5043993;28;20304;-69
2023/04/30 07:02:11;;;;;;;;;;;;;;;11.29;100.00;96691.38;5019452;28;19970;-70
2023/04/30 07:04:36;;;;;;;;;;;;;;;11.00;100.00;96692.91;5026146;28;20424;-68
2023/04/30 07:07:01;;;;;;;;;;;;;;;11.69;100.00;96691.06;5024652;28;19967;-74
2023/04/30 07:09:27;;;;;;;;;;;;;;;12.21;100.00;96692.06;5040905;28;20003;-70
2023/04/30 07:11:53;;;;;;;;;;;;;;;11.86;100.00;96682.22;5046324;28;20347;-70
2023/04/30 07:14:18;;;;;;;;;;;;;;;12.27;100.00;96687.78;5040248;28;19916;-69
2023/04/30 07:16:43;;;;;;;;;;;;;;;12.38;100.00;96679.66;5042699;28;20553;-69
2023/04/30 07:19:09;;;;;;;;;;;;;;;13.27;98.75;96675.94;5021173;28;19960;-69
2023/04/30 07:21:34;;;;;;;;;;;;;;;12.71;99.21;96680.69;5044393;28;19917;-70
2023/04/30 07:23:59;;;;;;;;;;;;;;;12.49;99.63;96677.00;5043132;28;19917;-70
2023/04/30 07:26:25;;;;;;;;;;;;;;;13.05;96.28;96677.78;5037920;28;19924;-70
2023/04/30 07:28:50;;;;;;;;;;;;;;;12.91;97.62;96682.03;5043131;28;19928;-70
2023/04/30 07:31:16;;;;;;;;;;;;;;;13.44;95.26;96689.03;5038874;28;19948;-70
2023/04/30 07:33:41;;;;;;;;;;;;;;;12.96;93.02;96689.13;5041082;28;20377;-71
2023/04/30 07:36:07;;;;;;;;;;;;;;;13.71;92.45;96688.78;5041888;28;19921;-72
2023/04/30 07:38:32;;;;;;;;;;;;;;;13.88;89.00;96695.50;5045427;28;20074;-71
2023/04/30 07:40:57;;;;;;;;;;;;;;;13.64;87.71;96689.53;5025735;28;20373;-70
2023/04/30 07:43:22;;;;;;;;;;;;;;;13.10;90.54;96689.22;5039117;28;20298;-70
2023/04/30 07:45:48;;;;;;;;;;;;;;;13.24;90.09;96699.53;5043132;28;19921;-71
2023/04/30 07:48:14;;;;;;;;;;;;;;;14.40;87.62;96698.75;5038942;28;19917;-71
2023/04/30 07:50:39;;;;;;;;;;;;;;;13.27;90.69;96696.00;5042869;28;19921;-70
2023/04/30 07:53:08;;;;;;;;;;;;;;;13.00;92.39;96700.94;5004286;28;19921;-72
2023/04/30 07:55:33;;;;;;;;;;;;;;;13.15;90.32;96686.09;5009978;28;20000;-71
2023/04/30 07:57:58;;;;;;;;;;;;;;;13.89;88.28;96695.13;5044487;28;20284;-71
2023/04/30 08:00:25;;;;;;;;;;;;;;;14.43;84.60;96694.47;5039540;28;20366;-69
2023/04/30 08:02:50;;;;;;;;;;;;;;;14.68;83.49;96686.22;5043606;28;20389;-71
2023/04/30 08:05:16;;;;;;;;;;;;;;;14.67;80.21;96679.91;5022168;28;19963;-71
2023/04/30 08:07:43;;;;;;;;;;;;;;;13.72;85.75;96679.31;5043656;28;19979;-71
2023/04/30 08:10:08;;;;;;;;;;;;;;;14.86;78.34;96681.50;5050367;28;19927;-72
2023/04/30 08:12:37;;;;;;;;;;;;;;;15.38;76.00;96669.97;5056950;28;19952;-71
2023/04/30 08:15:03;;;;;;;;;;;;;;;15.65;77.09;96675.00;5030691;28;20023;-73
2023/04/30 08:17:29;;;;;;;;;;;;;;;16.52;69.32;96664.25;5026049;28;20004;-71
2023/04/30 08:19:54;;;;;;;;;;;;;;;18.01;63.51;96670.69;5044399;28;20026;-70
2023/04/30 08:22:20;;;;;;;;;;;;;;;16.69;66.38;96668.06;5022006;28;19917;-72
2023/04/30 08:24:45;;;;;;;;;;;;;;;15.49;72.76;96656.91;5043148;28;19921;-70
2023/04/30 08:27:10;;;;;;;;;;;;;;;14.69;79.37;96662.97;5039144;28;19917;-72
2023/04/30 08:29:36;;;;;;;;;;;;;;;14.65;75.55;96670.47;5042909;28;19964;-70
2023/04/30 08:32:03;;;;;;;;;;;;;;;14.14;82.76;96664.88;5041118;28;19917;-74
2023/04/30 08:34:28;;;;;;;;;;;;;;;14.26;82.78;96660.19;5041795;28;20292;-71
2023/04/30 08:36:53;;;;;;;;;;;;;;;14.90;79.39;96659.44;5026481;28;19947;-73
2023/04/30 08:39:18;;;;;;;;;;;;;;;15.58;76.37;96653.72;5039281;28;20427;-69
2023/04/30 08:41:45;;;;;;;;;;;;;;;16.43;70.49;96659.19;5044184;28;19923;-71
2023/04/30 08:44:12;;;;;;;;;;;;;;;15.98;71.58;96662.63;5043356;28;20337;-72
2023/04/30 08:46:38;;;;;;;;;;;;;;;15.94;73.17;96661.88;5048000;28;19943;-72
2023/04/30 08:49:03;;;;;;;;;;;;;;;16.80;67.11;96666.81;5043492;28;19917;-75
2023/04/30 08:51:30;;;;;;;;;;;;;;;18.08;61.39;96676.13;5041105;28;19943;-72
2023/04/30 08:53:56;;;;;;;;;;;;;;;16.57;68.53;96672.13;5042682;28;19972;-72
2023/04/30 08:56:22;;;;;;;;;;;;;;;17.75;61.47;96670.97;5038407;28;20419;-72
2023/04/30 08:58:47;;;;;;;;;;;;;;;17.05;64.42;96667.78;5043261;28;20350;-69
2023/04/30 09:01:13;;;;;;;;;;;;;;;17.32;64.81;96668.69;5036907;28;19917;-70
2023/04/30 09:03:38;;;;;;;;;;;;;;;17.90;63.24;96673.59;5041540;28;20350;-70
2023/04/30 09:06:04;;;;;;;;;;;;;;;16.65;67.09;96668.09;5021210;28;20369;-76
2023/04/30 09:08:43;;;;;;;;;;;;;;;16.83;62.28;96654.16;5043498;28;19952;-70
2023/04/30 09:11:27;;;;;;;;;;;;;;;15.76;70.59;96670.25;5038073;28;19917;-71
2023/04/30 09:14:02;;;;;;;;;;;;;;;17.32;61.42;96678.97;5043660;28;20015;-72
2023/04/30 09:16:31;;;;;;;;;;;;;;;17.02;63.54;96652.78;5036647;28;19917;-71
2023/04/30 09:18:57;;;;;;;;;;;;;;;17.31;60.84;96669.09;5043440;28;19928;-71
2023/04/30 09:21:33;;;;;;;;;;;;;;;17.00;63.76;96663.50;5039170;28;20286;-71
2023/04/30 09:24:00;;;;;;;;;;;;;;;17.43;61.41;96667.78;5026813;28;19927;-71
2023/04/30 09:26:27;;;;;;;;;;;;;;;17.44;61.95;96678.44;5041120;28;19924;-69
2023/04/30 09:28:59;;;;;;;;;;;;;;;16.04;66.17;96674.84;5028442;28;19921;-70
2023/04/30 09:31:26;;;;;;;;;;;;;;;17.07;65.28;96671.72;5025465;28;20455;-70
2023/04/30 09:33:52;;;;;;;;;;;;;;;18.00;61.56;96675.41;5026730;28;20377;-69
2023/04/30 09:36:18;;;;;;;;;;;;;;;17.56;59.82;96675.16;5038834;28;20257;-69
2023/04/30 09:38:44;;;;;;;;;;;;;;;16.59;65.27;96673.28;5043429;28;19927;-70
2023/04/30 09:41:26;;;;;;;;;;;;;;;16.03;66.46;96667.75;5042541;28;20032;-70
2023/04/30 09:43:52;;;;;;;;;;;;;;;15.63;67.29;96663.59;5044679;28;20370;-70
2023/04/30 09:46:18;;;;;;;;;;;;;;;15.92;65.82;96658.72;5042111;28;19924;-71
2023/04/30 09:48:43;;;;;;;;;;;;;;;15.53;66.53;96656.91;5046399;28;19917;-70
2023/04/30 09:51:09;;;;;;;;;;;;;;;15.20;69.43;96658.97;5044014;28;20279;-70
2023/04/30 09:53:37;;;;;;;;;;;;;;;15.10;68.77;96659.78;5045842;28;19924;-70
2023/04/30 09:56:05;;;;;;;;;;;;;;;14.81;69.84;96661.81;5044479;28;19923;-72
2023/04/30 09:58:35;;;;;;;;;;;;;;;14.81;69.85;96670.06;5045680;28;20276;-68
2023/04/30 10:01:02;;;;;;;;;;;;;;;15.32;69.86;96659.72;5045780;28;19924;-69
2023/04/30 10:03:30;;;;;;;;;;;;;;;15.18;67.74;96655.03;5028843;28;20027;-67
2023/04/30 10:05:55;;;;;;;;;;;;;;;14.96;69.31;96665.31;5047630;28;20417;-70
2023/04/30 10:08:33;;;;;;;;;;;;;;;14.69;71.10;96662.97;5024270;28;19925;-70
2023/04/30 10:11:02;;;;;;;;;;;;;;;16.08;67.72;96665.72;5044833;28;19924;-70
2023/04/30 10:13:30;;;;;;;;;;;;;;;15.01;69.42;96654.66;5026030;28;19917;-70
2023/04/30 10:15:57;;;;;;;;;;;;;;;15.73;67.81;96665.50;5046498;28;20083;-71
2023/04/30 10:18:37;;;;;;;;;;;;;;;15.78;66.90;96662.34;5041926;28;19927;-74
2023/04/30 10:21:09;;;;;;;;;;;;;;;15.46;67.37;96651.41;5025214;28;19927;-71
2023/04/30 10:23:35;;;;;;;;;;;;;;;15.76;67.48;96661.97;5044909;28;20013;-70
2023/04/30 10:26:01;;;;;;;;;;;;;;;16.71;64.91;96655.41;5044823;28;19924;-68
2023/04/30 10:28:27;;;;;;;;;;;;;;;16.04;65.71;96649.97;5044154;28;19924;-70
2023/04/30 10:30:53;;;;;;;;;;;;;;;16.55;62.27;96644.09;5033796;28;19917;-69
2023/04/30 10:33:39;;;;;;;;;;;;;;;15.61;63.47;96643.84;5043458;28;19927;-72
2023/04/30 10:36:07;;;;;;;;;;;;;;;15.98;66.09;96643.28;5038568;28;19917;-72
2023/04/30 10:38:33;;;;;;;;;;;;;;;16.88;61.29;96644.63;5044564;28;19925;-69
2023/04/30 10:41:00;;;;;;;;;;;;;;;16.97;63.09;96631.09;5025202;28;19923;-69
2023/04/30 10:43:26;;;;;;;;;;;;;;;16.21;63.15;96633.69;5040501;28;19916;-69
2023/04/30 10:45:51;;;;;;;;;;;;;;;16.69;62.88;96637.66;5026235;28;19934;-69
2023/04/30 10:48:24;;;;;;;;;;;;;;;16.16;63.63;96629.38;5021945;28;19920;-70
2023/04/30 10:50:51;;;;;;;;;;;;;;;16.07;63.63;96625.50;5039691;28;20389;-69
2023/04/30 10:53:17;;;;;;;;;;;;;;;15.91;63.66;96620.47;5038648;28;20023;-69
2023/04/30 10:56:07;;;;;;;;;;;;;;;16.18;62.20;96624.22;5024681;28;19920;-71
2023/04/30 10:58:35;;;;;;;;;;;;;;;15.75;65.27;96627.25;5043678;28;19939;-70
2023/04/30 11:01:09;;;;;;;;;;;;;;;16.31;61.44;96620.97;5039046;28;19917;-70
2023/04/30 11:03:35;;;;;;;;;;;;;;;16.46;62.38;96627.16;5056980;28;19932;-72
2023/04/30 11:06:06;;;;;;;;;;;;;;;16.00;64.74;96615.28;5049304;28;19917;-70
2023/04/30 11:08:33;;;;;;;;;;;;;;;16.35;67.22;96616.19;5043486;28;19932;-69
2023/04/30 11:10:59;;;;;;;;;;;;;;;16.21;62.93;96608.81;5043341;28;19921;-69
2023/04/30 11:13:25;;;;;;;;;;;;;;;15.94;63.91;96600.34;5038834;28;20007;-70
2023/04/30 11:15:50;;;;;;;;;;;;;;;15.99;63.74;96608.16;5041712;28;20002;-70
2023/04/30 11:18:17;;;;;;;;;;;;;;;16.60;62.82;96610.47;5038633;28;19993;-69
2023/04/30 11:20:48;;;;;;;;;;;;;;;16.90;63.19;96606.28;5025300;28;19916;-70
2023/04/30 11:23:15;;;;;;;;;;;;;;;16.52;62.56;96607.00;5020913;28;20377;-70
2023/04/30 11:25:41;;;;;;;;;;;;;;;16.28;63.63;96605.19;5043462;28;20389;-68
2023/04/30 11:28:12;;;;;;;;;;;;;;;16.13;62.88;96615.59;5037932;28;19974;-69
2023/04/30 11:30:37;;;;;;;;;;;;;;;16.10;63.13;96603.38;5044683;28;19928;-68
2023/04/30 11:33:03;;;;;;;;;;;;;;;16.15;64.01;96593.84;5022968;28;20544;-73
2023/04/30 11:35:29;;;;;;;;;;;;;;;17.34;60.92;96593.53;5037671;28;19916;-69
2023/04/30 11:37:55;;;;;;;;;;;;;;;17.23;62.29;96595.66;5046918;28;19925;-70
2023/04/30 11:40:21;;;;;;;;;;;;;;;16.91;60.84;96589.28;5040433;28;19916;-70
2023/04/30 11:42:47;;;;;;;;;;;;;;;16.05;63.49;96590.00;5037633;28;20292;-70
2023/04/30 11:45:16;;;;;;;;;;;;;;;16.74;62.41;96598.50;5038516;28;19917;-69
2023/04/30 11:47:41;;;;;;;;;;;;;;;17.29;59.96;96594.00;5043053;28;19924;-69
2023/04/30 11:50:08;;;;;;;;;;;;;;;17.27;59.77;96590.84;5038372;28;20320;-69
2023/04/30 11:52:33;;;;;;;;;;;;;;;17.14;60.71;96580.34;5042693;28;19986;-69
2023/04/30 11:54:59;;;;;;;;;;;;;;;16.00;62.46;96577.38;5042572;28;19970;-68
2023/04/30 11:57:25;;;;;;;;;;;;;;;16.46;64.52;96580.19;5038690;28;19920;-68
2023/04/30 11:59:50;;;;;;;;;;;;;;;16.86;62.55;96584.19;5042805;28;19928;-70
2023/04/30 12:02:15;;;;;;;;;;;;;;;17.50;59.82;96577.13;5035177;28;20015;-69
2023/04/30 12:04:42;;;;;;;;;;;;;;;16.95;60.50;96580.94;5043004;28;19971;-70
2023/04/30 12:07:08;;;;;;;;;;;;;;;16.62;62.07;96578.47;5037336;28;20408;-71
2023/04/30 12:09:50;;;;;;;;;;;;;;;16.11;62.36;96560.72;5025695;28;19932;-68
2023/04/30 12:12:25;;;;;;;;;;;;;;;16.04;64.71;96569.06;5019595;28;19994;-68
2023/04/30 12:14:50;;;;;;;;;;;;;;;16.70;62.72;96572.88;5025196;28;19921;-70
2023/04/30 12:17:29;;;;;;;;;;;;;;;16.65;61.24;96574.09;5036906;28;20372;-72
2023/04/30 12:19:54;;;;;;;;;;;;;;;17.06;58.47;96567.00;5043585;28;20373;-69
2023/04/30 12:22:20;;;;;;;;;;;;;;;17.28;59.09;96571.06;5038632;28;19917;-70
2023/04/30 12:24:45;;;;;;;;;;;;;;;16.93;59.71;96572.28;5043232;28;19960;-69
2023/04/30 12:27:11;;;;;;;;;;;;;;;16.88;60.88;96558.88;5038288;28;19960;-69
2023/04/30 12:29:39;;;;;;;;;;;;;;;17.16;58.50;96566.06;5023903;28;20055;-69
2023/04/30 12:32:04;;;;;;;;;;;;;;;16.96;58.00;96541.81;5039357;28;19967;-72
2023/04/30 12:34:31;;;;;;;;;;;;;;;17.17;59.48;96548.28;5026247;28;20331;-70
2023/04/30 12:36:57;;;;;;;;;;;;;;;16.71;58.00;96552.31;5042448;28;20008;-69
2023/04/30 12:39:22;;;;;;;;;;;;;;;16.45;57.82;96551.75;5038066;28;20743;-71
2023/04/30 12:41:48;;;;;;;;;;;;;;;16.62;58.71;96558.34;5040962;28;19928;-70
2023/04/30 12:44:23;;;;;;;;;;;;;;;17.07;60.35;96555.50;5038595;28;19970;-69